Latest Weather Observations for Cape Bruny AWS

IDT60801

Issued at 9:02 pm EDT Tuesday 28 March 2017 (issued every 30 minutes, with the page automatically refreshed every 10 minutes)

About weather observations | Map of weather stations | Latest weather observations for TAS | Other Formats
Station Details ID: 094198 Name: CAPE BRUNY (CAPE BRUNY) Lat: -43.49 Lon: 147.14 Height: 59.7 m
Data from the previous 72 hours. | See also: Recent months at Cape Bruny AWS
Date/Time
EDT
Temp
°C
App
Temp
°C
Dew
Point
°C
Rel
Hum
%
Delta-T
°C
Wind Press
QNH
hPa
Press
MSL
hPa
Rain since
9am
mm
Dir  Spd
km/h
Gust
km/h
Spd
kts
Gust
kts
28/08:30pm 17.0 10.5 8.2 56 4.5 NW 32 48 17 26 1004.5 1004.4 0.0
28/08:00pm 17.0 10.0 8.4 57 4.4 NW 35 50 19 27 1004.2 1004.1 0.0
28/07:30pm 17.0 10.2 9.2 60 4.1 WNW 35 48 19 26 1004.0 1003.9 0.0
28/07:00pm 17.2 10.1 9.4 60 4.1 NW 37 56 20 30 1003.7 1003.6 0.0
28/06:30pm 18.0 11.5 8.8 55 4.8 NW 33 48 18 26 1003.7 1003.6 0.0
28/06:00pm 18.6 10.6 9.1 54 5.0 NW 41 54 22 29 1003.5 1003.4 0.0
28/05:30pm 18.1 8.4 8.9 55 4.8 WNW 50 74 27 40 1003.4 1003.3 0.0
28/05:00pm 19.1 9.2 8.4 50 5.6 WNW 50 69 27 37 1003.0 1002.9 0.0
28/04:30pm 19.5 10.0 9.7 53 5.2 NW 50 70 27 38 1003.1 1003.0 0.0
28/04:04pm 19.4 10.7 9.9 54 5.1 WNW 46 65 25 35 1003.2 1003.1 0.0
28/04:00pm 19.1 9.8 9.3 53 5.2 WNW 48 65 26 35 1003.2 1003.1 0.0
28/03:34pm 19.7 10.2 8.4 48 5.9 WNW 48 67 26 36 1003.0 1002.9 0.0
28/03:30pm 20.1 10.2 8.4 47 6.1 WNW 50 65 27 35 1003.0 1002.9 0.0
28/03:15pm 19.8 10.0 8.5 48 5.9 NW 50 74 27 40 1002.8 1002.7 0.0
28/03:14pm 19.9 10.1 8.6 48 5.9 NW 50 74 27 40 1002.7 1002.6 0.0
28/03:00pm 20.5 12.8 8.8 47 6.2 WNW 39 59 21 32 1003.2 1003.1 0.0
28/02:30pm 20.6 12.4 8.3 45 6.4 NW 41 61 22 33 1003.1 1003.0 0.0
28/02:05pm 20.2 12.5 8.5 47 6.1 NW 39 57 21 31 1003.2 1003.1 0.0
28/02:00pm 20.2 12.0 8.2 46 6.3 NW 41 57 22 31 1003.2 1003.1 0.0
28/01:30pm 19.6 9.6 8.0 47 6.0 WNW 50 74 27 40 1003.3 1003.2 0.0
28/01:00pm 19.1 8.6 9.0 52 5.3 WNW 54 74 29 40 1003.5 1003.4 0.0
28/12:31pm 19.7 9.3 9.3 51 5.5 WNW 54 80 29 43 1003.7 1003.6 0.0
28/12:30pm 19.6 8.9 9.5 52 5.4 WNW 56 80 30 43 1003.7 1003.6 0.0
28/12:28pm 19.6 9.1 8.9 50 5.6 WNW 54 80 29 43 1003.5 1003.4 0.0
28/12:27pm 19.5 8.9 8.5 49 5.7 WNW 54 80 29 43 1003.3 1003.2 0.0
28/12:11pm 19.3 10.8 8.6 50 5.6 NW 43 63 23 34 1003.8 1003.7 0.0
28/12:00pm 19.2 10.8 9.1 52 5.3 NW 43 57 23 31 1003.9 1003.8 0.0
28/11:42am 19.1 8.8 8.1 49 5.7 WNW 52 83 28 45 1003.7 1003.6 0.0
28/11:30am 19.0 10.7 9.5 54 5.0 WNW 43 63 23 34 1004.1 1004.0 0.0
28/11:03am 18.5 9.3 9.6 56 4.7 WNW 48 69 26 37 1004.0 1003.9 0.0
28/11:00am 18.1 9.1 8.7 54 4.9 WNW 46 69 25 37 1004.0 1003.9 0.0
28/10:59am 18.0 9.2 8.0 52 5.1 WNW 44 69 24 37 1003.9 1003.8 0.0
28/10:31am 17.0 10.1 8.7 58 4.3 NW 35 54 19 29 1004.4 1004.3 0.0
28/10:30am 17.1 9.7 8.5 57 4.4 NW 37 54 20 29 1004.4 1004.3 0.0
28/10:14am 16.7 11.1 8.9 60 4.0 NW 28 46 15 25 1004.7 1004.6 0.0
28/10:00am 16.4 9.0 8.4 59 4.1 WNW 37 50 20 27 1004.4 1004.3 0.0
28/09:30am 16.3 7.2 8.3 59 4.1 WNW 46 65 25 35 1004.3 1004.2 0.0
28/09:14am 16.2 8.1 8.7 61 3.8 WNW 41 59 22 32 1004.5 1004.4 0.0
28/09:00am 16.3 8.4 8.0 58 4.2 WNW 39 56 21 30 1004.2 1004.1 5.6
28/08:33am 16.1 8.7 8.3 60 4.0 WNW 37 56 20 30 1004.0 1003.9 5.6
28/08:30am 16.1 9.1 8.3 60 4.0 WNW 35 46 19 25 1004.1 1004.0 5.6
28/08:02am 16.1 9.4 8.1 59 4.0 WNW 33 52 18 28 1004.1 1004.0 5.6
28/08:00am 16.1 8.6 7.8 58 4.2 WNW 37 54 20 29 1004.1 1004.0 5.6
28/07:31am 15.9 7.6 7.7 58 4.1 WNW 41 59 22 32 1003.7 1003.6 5.6
28/07:30am 16.0 7.3 7.5 57 4.2 WNW 43 59 23 32 1003.7 1003.6 5.6
28/07:00am 16.0 8.1 8.0 59 4.1 WNW 39 52 21 28 1003.7 1003.6 5.6
28/06:30am 15.8 9.3 8.1 60 3.9 NW 32 50 17 27 1003.5 1003.4 5.6
28/06:03am 16.2 9.1 8.2 59 4.1 NW 35 56 19 30 1003.2 1003.1 5.6
28/06:00am 16.1 9.5 7.8 58 4.2 NW 32 43 17 23 1003.2 1003.1 5.6
28/05:30am 15.9 9.9 6.9 55 4.4 WNW 28 41 15 22 1002.9 1002.8 5.6
28/05:00am 15.9 8.0 7.7 58 4.1 WNW 39 52 21 28 1002.6 1002.5 5.6
28/04:30am 16.1 9.8 7.3 56 4.4 NW 30 44 16 24 1002.6 1002.5 5.6
28/04:00am 16.1 10.4 6.5 53 4.7 NW 26 41 14 22 1002.5 1002.4 5.6
28/03:30am 16.0 9.2 7.0 55 4.5 NW 32 46 17 25 1002.3 1002.2 5.6
28/03:09am 15.9 9.5 6.9 55 4.4 NW 30 48 16 26 1001.9 1001.8 5.6
28/03:00am 15.7 11.4 8.0 60 3.9 NW 20 35 11 19 1002.1 1002.0 5.6
28/02:30am 14.9 11.7 7.0 59 3.9 NNW 13 26 7 14 1002.1 1002.0 5.6
28/02:00am 14.8 11.5 6.6 58 4.0 NNW 13 24 7 13 1002.6 1002.5 5.6
28/01:30am 15.4 10.7 6.2 54 4.5 NW 20 35 11 19 1002.4 1002.3 5.6
28/01:05am 15.5 7.2 6.0 53 4.6 NW 39 57 21 31 1002.2 1002.1 5.6
28/01:00am 15.6 6.3 5.8 52 4.7 NW 44 59 24 32 1001.9 1001.8 5.6
28/12:42am 15.5 5.5 6.0 53 4.6 NW 48 76 26 41 1001.7 1001.7 5.6
28/12:40am 15.6 5.9 5.8 52 4.7 NW 46 76 25 41 1001.6 1001.6 5.6
28/12:30am 15.7 6.4 5.9 52 4.7 WNW 44 69 24 37 1002.3 1002.2 5.6
28/12:29am 15.7 6.0 5.6 51 4.8 WNW 46 69 25 37 1002.2 1002.1 5.6
28/12:27am 15.6 5.8 6.9 56 4.3 WNW 48 69 26 37 1002.1 1002.0 5.6
28/12:00am 15.7 3.6 5.9 52 4.8 WNW 59 82 32 44 1000.9 1000.9 5.6
 
Date/Time
EDT
Temp
°C
App
Temp
°C
Dew
Point
°C
Rel
Hum
%
Delta-T
°C
Wind Press
QNH
hPa
Press
MSL
hPa
Rain since
9am
mm
Dir  Spd
km/h
Gust
km/h
Spd
kts
Gust
kts
27/11:30pm 15.7 4.7 6.7 55 4.4 WNW 54 72 29 39 1001.1 1001.1 5.6
27/11:00pm 15.8 4.9 7.1 56 4.3 WNW 54 74 29 40 1001.5 1001.5 5.6
27/10:30pm 15.7 7.5 8.4 62 3.7 WNW 41 67 22 36 1001.5 1001.5 5.6
27/10:23pm 15.7 7.9 8.2 61 3.8 WNW 39 57 21 31 1001.7 1001.7 5.6
27/10:00pm 15.7 8.7 8.4 62 3.7 NW 35 48 19 26 1001.7 1001.7 5.6
27/09:38pm 16.2 10.3 7.7 57 4.3 WNW 28 46 15 25 1001.2 1001.2 5.6
27/09:30pm 16.3 10.2 8.3 59 4.1 WNW 30 44 16 24 1001.1 1001.1 5.6
27/09:00pm 16.5 8.9 7.4 55 4.6 WNW 37 57 20 31 1001.2 1001.2 5.6
27/08:44pm 16.3 10.0 7.5 56 4.4 NW 30 54 16 29 1000.6 1000.6 5.6
27/08:30pm 16.2 7.8 8.9 62 3.8 WNW 43 57 23 31 1000.1 1000.1 5.6
27/08:22pm 16.1 8.3 8.3 60 4.0 WNW 39 57 21 31 999.7 999.7 5.6
27/08:00pm 15.7 9.8 9.1 65 3.4 NW 30 48 16 26 999.8 999.8 5.6
27/07:57pm 15.7 10.1 8.9 64 3.5 NW 28 48 15 26 999.8 999.8 5.6
27/07:30pm 16.0 7.9 8.7 62 3.7 NW 41 52 22 28 999.0 999.0 5.6
27/07:00pm 15.9 7.5 8.9 63 3.6 NW 43 54 23 29 998.1 998.1 5.6
27/06:32pm 15.6 9.3 9.1 65 3.3 NW 32 54 17 29 998.3 998.3 5.6
27/06:30pm 15.6 9.4 9.3 66 3.3 WNW 32 46 17 25 998.3 998.3 5.6
27/06:13pm 16.0 10.4 8.7 62 3.7 WNW 28 43 15 23 998.2 998.2 5.6
27/06:00pm 16.0 13.3 9.0 63 3.6 N 13 22 7 12 998.1 998.1 5.6
27/05:30pm 14.7 10.8 9.5 71 2.7 WNW 20 32 11 17 998.2 998.2 5.6
27/05:00pm 14.4 9.7 9.2 71 2.7 NW 24 41 13 22 997.7 997.7 5.6
27/04:34pm 13.8 7.0 10.8 82 1.6 WNW 37 56 20 30 997.2 997.1 5.6
27/04:30pm 13.6 6.4 10.6 82 1.6 WNW 39 56 21 30 997.3 997.2 5.6
27/04:22pm 13.1 4.4 10.1 82 1.6 WNW 46 63 25 34 997.0 996.9 5.6
27/04:02pm 14.6 3.9 11.6 82 1.6 WNW 59 78 32 42 997.7 997.7 4.6
27/04:00pm 14.5 3.3 11.3 81 1.7 WNW 61 78 33 42 997.6 997.6 4.4
27/03:30pm 17.2 5.6 11.2 68 3.2 WNW 63 106 34 57 995.9 995.8 4.2
27/03:12pm 17.9 9.9 12.4 70 3.1 WNW 46 95 25 51 995.9 995.8 4.2
27/03:07pm 18.3 13.4 12.5 69 3.2 WNW 30 74 16 40 995.8 995.7 4.2
27/03:00pm 18.3 15.2 14.6 79 2.2 NW 24 39 13 21 996.0 995.9 4.2
27/02:41pm 18.1 11.4 16.1 88 1.2 WNW 46 61 25 33 995.2 995.1 4.2
27/02:30pm 17.7 8.6 15.3 86 1.4 WNW 57 87 31 47 994.9 994.8 3.8
27/02:23pm 19.1 10.0 15.4 79 2.2 WNW 57 87 31 47 994.9 994.8 1.6
27/02:16pm 21.9 14.9 15.3 66 3.9 WNW 46 67 25 36 993.7 993.6 0.0
27/02:15pm 22.3 15.3 15.2 64 4.2 NW 46 65 25 35 993.6 993.5 0.0
27/02:04pm 26.0 22.1 14.5 49 6.9 NW 28 46 15 25 993.3 993.2 0.0
27/02:00pm 25.9 22.4 14.4 49 6.9 NNW 26 44 14 24 993.2 993.1 0.0
27/01:30pm 26.8 24.6 14.9 48 7.2 N 20 39 11 21 993.4 993.3 0.0
27/01:00pm 25.7 23.8 15.7 54 6.1 NNE 20 30 11 16 993.8 993.7 0.0
27/12:30pm 25.0 23.2 15.6 56 5.7 NNE 19 32 10 17 994.8 994.7 0.0
27/12:00pm 22.4 20.5 15.7 66 4.1 NNE 20 30 11 16 995.5 995.4 0.0
27/11:30am 21.9 20.8 15.3 66 3.9 N 15 20 8 11 996.9 996.8 0.0
27/11:00am 21.2 18.2 14.8 67 3.8 NNE 24 33 13 18 997.0 996.9 0.0
27/10:30am 20.8 18.2 14.9 69 3.5 NNE 22 33 12 18 997.7 997.7 0.0
27/10:00am 21.5 19.2 14.6 65 4.1 NNE 20 37 11 20 998.2 998.2 0.0
27/09:30am 21.5 19.3 14.9 66 3.9 NNE 20 33 11 18 999.3 999.3 0.0
27/09:00am 20.7 19.4 14.8 69 3.5 ENE 15 26 8 14 1000.2 1000.2 0.0
27/08:30am 19.9 17.4 14.0 69 3.4 N 20 33 11 18 1000.6 1000.6 0.0
27/08:00am 19.0 15.6 13.8 72 3.0 NNE 24 33 13 18 1001.2 1001.2 0.0
27/07:30am 18.3 16.1 13.4 73 2.8 NNE 17 28 9 15 1001.7 1001.7 0.0
27/07:00am 18.0 15.4 13.3 74 2.7 NNE 19 28 10 15 1002.1 1002.0 0.0
27/06:30am 17.5 14.8 13.0 75 2.5 NNE 19 35 10 19 1002.7 1002.6 0.0
27/06:00am 17.3 14.6 13.4 78 2.2 NNE 20 32 11 17 1003.4 1003.3 0.0
27/05:30am 17.0 14.4 13.1 78 2.2 N 19 26 10 14 1003.9 1003.8 0.0
27/05:00am 16.8 13.7 13.3 80 2.0 N 22 30 12 16 1004.0 1003.9 0.0
27/04:30am 16.6 13.5 13.5 82 1.7 NNE 22 30 12 16 1004.6 1004.5 0.0
27/04:00am 16.5 13.8 13.4 82 1.7 NNE 20 32 11 17 1005.3 1005.2 0.0
27/03:30am 16.6 14.0 13.7 83 1.6 NNE 20 30 11 16 1006.1 1006.0 0.0
27/03:00am 16.4 13.8 13.9 85 1.4 N 20 32 11 17 1006.4 1006.3 0.0
27/02:30am 16.1 12.4 13.9 87 1.2 NNE 26 37 14 20 1006.9 1006.8 0.0
27/02:00am 16.1 13.6 13.6 85 1.4 N 19 24 10 13 1007.8 1007.7 0.0
27/01:30am 16.0 13.0 13.7 86 1.3 NNE 22 35 12 19 1008.2 1008.1 0.0
27/01:00am 16.0 13.0 13.7 86 1.3 NNE 22 33 12 18 1008.8 1008.7 0.0
27/12:30am 16.1 12.7 13.6 85 1.4 NNE 24 35 13 19 1009.6 1009.5 0.0
27/12:00am 15.9 13.2 13.4 85 1.4 NNE 20 28 11 15 1010.2 1010.1 0.0
 
Date/Time
EDT
Temp
°C
App
Temp
°C
Dew
Point
°C
Rel
Hum
%
Delta-T
°C
Wind Press
QNH
hPa
Press
MSL
hPa
Rain since
9am
mm
Dir  Spd
km/h
Gust
km/h
Spd
kts
Gust
kts
26/11:30pm 15.9 12.5 13.6 86 1.3 NNE 24 35 13 19 1010.7 1010.6 0.0
26/11:00pm 15.8 13.1 13.6 87 1.2 NNE 20 32 11 17 1011.7 1011.6 0.0
26/10:30pm 15.4 13.6 13.2 87 1.2 NNE 15 22 8 12 1012.2 1012.2 0.0
26/10:00pm 15.1 13.6 13.0 87 1.2 NNW 13 17 7 9 1012.3 1012.3 0.0
26/09:30pm 14.7 14.2 12.6 87 1.2 NNE 7 9 4 5 1012.7 1012.7 0.0
26/09:00pm 14.8 14.3 12.7 87 1.2 NE 7 9 4 5 1012.9 1012.9 0.0
26/08:30pm 14.9 14.6 12.8 87 1.2 NNE 6 7 3 4 1013.1 1013.1 0.0
26/08:00pm 14.9 14.6 12.6 86 1.3 WNW 6 7 3 4 1013.3 1013.3 0.0
26/07:30pm 15.4 14.6 12.9 85 1.4 NNW 9 11 5 6 1013.2 1013.2 0.0
26/07:00pm 16.5 15.7 12.8 79 2.1 NW 9 11 5 6 1013.1 1013.1 0.0
26/06:30pm 17.4 17.8 13.7 79 2.1 ESE 4 11 2 6 1013.1 1013.1 0.0
26/06:00pm 17.5 15.5 13.8 79 2.1 ESE 17 22 9 12 1013.2 1013.2 0.0
26/05:30pm 17.7 15.2 14.2 80 2.0 ESE 20 28 11 15 1013.5 1013.5 0.0
26/05:00pm 17.8 15.3 14.1 79 2.1 SE 20 26 11 14 1013.6 1013.6 0.0
26/04:30pm 18.6 16.8 14.5 77 2.4 ESE 17 24 9 13 1013.8 1013.8 0.0
26/04:00pm 19.4 17.7 14.6 74 2.8 SE 17 20 9 11 1014.1 1014.1 0.0
26/03:30pm 19.6 17.9 14.6 73 2.9 ESE 17 20 9 11 1014.2 1014.2 0.0
26/03:00pm 19.5 18.1 14.5 73 2.9 SSE 15 19 8 10 1014.4 1014.4 0.0
26/02:30pm 19.1 18.1 14.6 75 2.6 S 13 17 7 9 1014.6 1014.6 0.0
26/02:00pm 19.4 18.6 15.1 76 2.5 S 13 17 7 9 1014.6 1014.6 0.0
26/01:30pm 18.1 17.5 14.6 80 2.0 S 11 15 6 8 1014.9 1014.9 0.0
26/01:00pm 17.4 16.7 14.3 82 1.8 S 11 13 6 7 1015.5 1015.5 0.0
26/12:30pm 17.5 16.7 14.0 80 2.0 S 11 15 6 8 1015.9 1015.9 0.0
26/12:00pm 19.4 18.7 14.4 73 2.9 S 11 15 6 8 1016.0 1016.0 0.0
26/11:30am 18.3 17.6 14.2 77 2.4 SSE 11 15 6 8 1015.9 1015.9 0.0
26/11:00am 17.1 16.9 13.6 80 2.0 S 7 11 4 6 1016.1 1016.1 0.0
26/10:30am 16.3 16.2 13.4 83 1.6 S 6 9 3 5 1016.0 1016.0 0.0
26/10:00am 16.3 16.4 13.8 85 1.4 W 6 9 3 5 1015.9 1015.9 0.0
26/09:30am 16.2 16.6 13.7 85 1.4 WSW 4 7 2 4 1015.7 1015.7 0.0
26/09:00am 15.8 15.5 13.3 85 1.4 WNW 7 7 4 4 1015.5 1015.5 0.4
26/08:30am 15.3 15.0 13.2 87 1.2 NNW 7 11 4 6 1015.0 1015.0 0.4
26/08:00am 15.1 14.0 13.1 88 1.1 N 11 15 6 8 1014.7 1014.7 0.4
26/07:30am 14.8 13.3 13.0 89 1.0 N 13 15 7 8 1014.2 1014.2 0.4
26/07:00am 14.8 13.3 13.0 89 1.0 N 13 17 7 9 1013.7 1013.7 0.4
26/06:30am 14.8 13.3 13.0 89 1.0 N 13 15 7 8 1013.5 1013.5 0.4
26/06:00am 14.7 13.9 12.9 89 1.0 N 9 11 5 6 1013.3 1013.3 0.4
26/05:30am 14.4 14.0 12.4 88 1.1 W 6 7 3 4 1013.5 1013.5 0.4
26/05:00am 14.0 12.9 12.0 88 1.1 NNW 9 11 5 6 1013.5 1013.5 0.4
26/04:30am 14.5 14.1 12.4 87 1.1 WNW 6 7 3 4 1013.6 1013.6 0.4
26/04:00am 14.5 14.1 12.4 87 1.1 WNW 6 9 3 5 1013.6 1013.6 0.4
26/03:30am 14.7 14.8 12.6 87 1.2 NW 4 7 2 4 1013.8 1013.8 0.4
26/03:00am 14.8 14.9 12.7 87 1.2 NW 4 7 2 4 1013.8 1013.8 0.4
26/02:30am 14.9 14.6 12.6 86 1.3 W 6 7 3 4 1013.7 1013.7 0.4
26/02:00am 15.0 15.5 12.7 86 1.3 WNW 2 7 1 4 1013.8 1013.8 0.4
26/01:30am 15.1 14.9 13.0 87 1.2 WNW 6 9 3 5 1013.5 1013.5 0.4
26/01:00am 15.3 14.5 13.0 86 1.3 W 9 11 5 6 1013.6 1013.6 0.4
26/12:30am 15.2 14.8 12.9 86 1.3 WNW 7 11 4 6 1013.6 1013.6 0.4
26/12:00am 15.0 14.5 12.7 86 1.3 WNW 7 9 4 5 1013.6 1013.6 0.4
 
Date/Time
EDT
Temp
°C
App
Temp
°C
Dew
Point
°C
Rel
Hum
%
Delta-T
°C
Wind Press
QNH
hPa
Press
MSL
hPa
Rain since
9am
mm
Dir  Spd
km/h
Gust
km/h
Spd
kts
Gust
kts
25/11:30pm 14.8 14.1 11.9 83 1.6 WNW 7 11 4 6 1013.7 1013.7 0.4
25/11:00pm 15.4 15.0 12.3 82 1.7 W 6 7 3 4 1013.7 1013.7 0.4
25/10:30pm 15.3 15.9 11.9 80 1.8 CALM 0 0 0 0 1013.6 1013.6 0.4
25/10:00pm 15.2 14.4 11.0 76 2.2 WSW 6 7 3 4 1013.4 1013.4 0.4
25/09:30pm 15.5 14.6 10.5 72 2.6 ESE 6 7 3 4 1013.2 1013.2 0.4

Other Formats:

Comma delimited format used in spreadsheet applications
http://www.bom.gov.au/fwo/IDT60801/IDT60801.95967.axf

JavaScript Object Notation format (JSON) in row-major order
http://www.bom.gov.au/fwo/IDT60801/IDT60801.95967.json